Terminal Aerodrome Forecast
Issued by NWS

Home | Current Version | Previous Version | Text Only | Print | Product List | Glossary On
Versions: 1 2 3 4 5 6 7 8 9 10 11 12 13 14 15 16 17 18
000
FTUS46 KLOX 252352
TAFSBP
TAF
KSBP 252352Z 2600/2624 31010KT P6SM FEW020
     FM260200 31008KT P6SM SCT015
     FM260400 31006KT P6SM BKN012
     FM261100 00000KT 6SM BR OVC007
     FM261500 VRB03KT P6SM BKN012
     FM261630 31006KT P6SM SCT012 SCT250
     FM262000 31010KT P6SM SCT250=

USA.gov is the U.S. government's official web portal to all federal, state and local government web resources and services.